createdAt,value
2023-02-05T00:00:26.038Z,5.47
2023-02-05T00:02:52.844Z,5.47
2023-02-05T00:05:19.790Z,5.65
2023-02-05T00:07:46.674Z,4.97
2023-02-05T00:10:15.011Z,5.47
2023-02-05T00:12:42.000Z,5.30
2023-02-05T00:15:12.571Z,5.57
2023-02-05T00:17:39.475Z,5.20
2023-02-05T00:20:09.714Z,5.35
2023-02-05T00:22:36.580Z,5.05
2023-02-05T00:25:03.797Z,4.80
2023-02-05T00:27:30.710Z,4.95
2023-02-05T00:29:57.605Z,6.00
2023-02-05T00:32:24.501Z,6.20
2023-02-05T00:34:53.499Z,6.43
2023-02-05T00:37:20.395Z,6.47
2023-02-05T00:39:47.322Z,5.55
2023-02-05T00:42:14.196Z,5.07
2023-02-05T00:44:41.076Z,5.97
2023-02-05T00:47:10.042Z,5.53
2023-02-05T00:49:36.921Z,5.75
2023-02-05T00:52:06.461Z,5.53
2023-02-05T00:54:33.328Z,5.10
2023-02-05T00:57:05.323Z,5.55
2023-02-05T00:59:34.552Z,5.63
2023-02-05T01:02:03.676Z,5.80
2023-02-05T01:04:30.619Z,5.00
2023-02-05T01:06:57.570Z,4.78
2023-02-05T01:09:24.467Z,5.28
2023-02-05T01:11:55.878Z,5.65
2023-02-05T01:14:22.761Z,5.60
2023-02-05T01:16:51.786Z,5.97
2023-02-05T01:19:18.656Z,5.82
2023-02-05T01:21:45.563Z,5.97
2023-02-05T01:24:12.422Z,6.57
2023-02-05T01:26:41.479Z,5.75
2023-02-05T01:29:11.403Z,6.05
2023-02-05T01:31:38.313Z,5.38
2023-02-05T01:34:07.507Z,5.25
2023-02-05T01:36:34.405Z,5.63
2023-02-05T01:39:05.786Z,5.78
2023-02-05T01:41:32.722Z,5.25
2023-02-05T01:44:11.540Z,5.53
2023-02-05T01:46:44.774Z,5.38
2023-02-05T01:49:26.929Z,4.85
2023-02-05T01:51:57.081Z,4.85
2023-02-05T01:54:29.230Z,4.85
2023-02-05T01:57:03.252Z,4.90
2023-02-05T01:59:34.690Z,4.75
2023-02-05T02:02:06.377Z,4.72
2023-02-05T02:04:49.992Z,5.07
2023-02-05T02:07:22.937Z,5.40
2023-02-05T02:09:50.881Z,4.45
2023-02-05T02:12:32.288Z,5.20
2023-02-05T02:15:16.143Z,5.07
2023-02-05T02:17:47.904Z,5.07
2023-02-05T02:20:26.169Z,5.07
2023-02-05T02:22:58.144Z,5.35
2023-02-05T02:25:54.084Z,5.18
2023-02-05T02:28:45.584Z,4.75
2023-02-05T02:31:36.075Z,5.07
2023-02-05T02:34:11.001Z,5.05
2023-02-05T02:37:01.433Z,5.43
2023-02-05T02:39:40.381Z,5.35
2023-02-05T02:42:16.921Z,5.20
2023-02-05T02:44:55.665Z,5.20
2023-02-05T02:47:32.422Z,5.10
2023-02-05T02:50:06.149Z,4.85
2023-02-05T02:52:39.339Z,5.07
2023-02-05T02:55:11.471Z,5.13
2023-02-05T02:57:44.358Z,4.72
2023-02-05T03:00:25.213Z,5.15
2023-02-05T03:03:00.746Z,5.70
2023-02-05T03:05:32.691Z,6.13
2023-02-05T03:08:21.490Z,5.88
2023-02-05T03:11:01.710Z,5.68
2023-02-05T03:13:29.383Z,5.63
2023-02-05T03:15:56.363Z,4.38
2023-02-05T03:18:23.398Z,4.47
2023-02-05T03:20:56.661Z,4.60
2023-02-05T03:23:24.356Z,5.15
2023-02-05T03:25:54.070Z,5.10
2023-02-05T03:28:21.427Z,5.32
2023-02-05T03:31:11.252Z,4.70
2023-02-05T03:33:58.981Z,5.10
2023-02-05T03:36:59.189Z,4.35
2023-02-05T03:39:43.324Z,4.82
2023-02-05T03:42:25.042Z,5.10
2023-02-05T03:48:27.754Z,4.60
2023-02-05T03:51:27.038Z,5.07
2023-02-05T03:54:12.172Z,5.07
2023-02-05T03:57:00.016Z,5.13
2023-02-05T03:59:29.053Z,5.68
2023-02-05T04:01:59.056Z,5.97
2023-02-05T04:04:28.676Z,6.25
2023-02-05T04:06:55.605Z,5.35
2023-02-05T04:09:22.803Z,5.13
2023-02-05T04:11:49.688Z,5.68
2023-02-05T04:14:19.063Z,5.80
2023-02-05T04:16:45.953Z,5.55
2023-02-05T04:19:12.896Z,5.43
2023-02-05T04:21:39.881Z,5.85
2023-02-05T04:24:07.256Z,5.35
2023-02-05T04:26:34.221Z,6.20
2023-02-05T04:29:03.407Z,4.75
2023-02-05T04:31:32.569Z,5.93
2023-02-05T04:33:59.464Z,5.05
2023-02-05T04:36:28.688Z,5.28
2023-02-05T04:38:55.565Z,5.07
2023-02-05T04:41:22.509Z,4.95
2023-02-05T04:43:49.436Z,4.78
2023-02-05T04:46:16.392Z,4.97
2023-02-05T04:48:43.426Z,5.28
2023-02-05T04:51:13.706Z,5.22
2023-02-05T04:53:41.113Z,5.07
2023-02-05T04:56:14.926Z,4.95
2023-02-05T04:58:45.067Z,5.43
2023-02-05T05:01:19.190Z,5.05
2023-02-05T05:03:46.953Z,5.38
2023-02-05T05:06:15.341Z,5.68
2023-02-05T05:08:47.661Z,5.53
2023-02-05T05:11:18.381Z,5.30
2023-02-05T05:13:49.272Z,5.40
2023-02-05T05:16:21.490Z,5.47
2023-02-05T05:18:51.551Z,6.55
2023-02-05T05:21:20.867Z,5.18
2023-02-05T05:23:47.684Z,5.03
2023-02-05T05:26:14.866Z,5.22
2023-02-05T05:28:43.825Z,5.70
2023-02-05T05:31:17.249Z,5.55
2023-02-05T05:33:44.201Z,5.20
2023-02-05T05:36:11.455Z,5.57
2023-02-05T05:38:39.014Z,4.80
2023-02-05T05:41:24.869Z,5.30
2023-02-05T05:43:54.485Z,5.53
2023-02-05T05:46:26.293Z,5.38
2023-02-05T05:48:56.773Z,5.10
2023-02-05T05:51:30.482Z,5.15
2023-02-05T05:53:59.716Z,4.85
2023-02-05T05:56:29.024Z,5.53
2023-02-05T05:58:55.904Z,5.00
2023-02-05T06:01:23.073Z,5.20
2023-02-05T06:03:50.447Z,4.97
2023-02-05T06:06:17.574Z,5.57
2023-02-05T06:08:44.436Z,4.88
2023-02-05T06:11:13.854Z,5.28
2023-02-05T06:13:41.811Z,5.32
2023-02-05T06:16:08.927Z,5.25
2023-02-05T06:18:35.802Z,5.50
2023-02-05T06:21:12.495Z,5.03
2023-02-05T06:23:39.360Z,5.22
2023-02-05T06:26:06.275Z,5.15
2023-02-05T06:28:36.154Z,6.45
2023-02-05T06:31:05.917Z,6.18
2023-02-05T06:33:32.798Z,6.00
2023-02-05T06:36:01.940Z,5.50
2023-02-05T06:38:28.947Z,5.57
2023-02-05T06:40:55.844Z,4.88
2023-02-05T06:43:22.743Z,4.60
2023-02-05T06:45:49.590Z,5.20
2023-02-05T06:48:19.449Z,4.72
2023-02-05T06:50:46.700Z,4.55
2023-02-05T06:53:14.115Z,4.68
2023-02-05T06:55:41.068Z,4.70
2023-02-05T06:58:07.942Z,4.63
2023-02-05T07:00:35.931Z,4.85
2023-02-05T07:03:03.276Z,5.05
2023-02-05T07:05:30.272Z,4.72
2023-02-05T07:07:57.262Z,4.45
2023-02-05T07:10:24.226Z,4.65
2023-02-05T07:12:51.172Z,4.93
2023-02-05T07:15:18.253Z,4.15
2023-02-05T07:17:45.147Z,3.90
2023-02-05T07:20:14.281Z,4.43
2023-02-05T07:22:47.152Z,3.90
2023-02-05T07:25:16.755Z,3.70
2023-02-05T07:27:46.245Z,4.25
2023-02-05T07:30:14.325Z,4.95
2023-02-05T07:32:41.216Z,4.80
2023-02-05T07:35:08.315Z,5.00
2023-02-05T07:37:37.384Z,4.60
2023-02-05T07:40:05.002Z,5.65
2023-02-05T07:42:31.807Z,5.25
2023-02-05T07:45:01.333Z,5.28
2023-02-05T07:47:31.259Z,5.30
2023-02-05T07:49:58.151Z,5.07
2023-02-05T07:52:25.090Z,4.85
2023-02-05T07:54:52.034Z,5.25
2023-02-05T07:57:21.012Z,5.20
2023-02-05T07:59:47.921Z,5.53
2023-02-05T08:02:14.735Z,5.18
2023-02-05T08:04:43.865Z,4.82
2023-02-05T08:07:14.187Z,4.13
2023-02-05T08:09:43.443Z,3.67
2023-02-05T08:12:10.449Z,3.58
2023-02-05T08:14:37.295Z,3.97
2023-02-05T08:17:06.250Z,4.07
2023-02-05T08:19:35.470Z,4.35
2023-02-05T08:22:02.376Z,4.20
2023-02-05T08:24:31.473Z,4.05
2023-02-05T08:26:58.424Z,3.70
2023-02-05T08:29:25.303Z,4.00
2023-02-05T08:31:52.232Z,3.80
2023-02-05T08:34:20.829Z,3.95
2023-02-05T08:36:50.456Z,3.78
2023-02-05T08:39:17.343Z,4.05
2023-02-05T08:41:44.507Z,3.20
2023-02-05T08:44:11.393Z,3.67
2023-02-05T08:46:49.363Z,3.65
2023-02-05T08:49:18.073Z,3.90
2023-02-05T08:51:47.779Z,3.67
2023-02-05T08:54:15.444Z,3.40
2023-02-05T08:56:44.815Z,3.42
2023-02-05T08:59:12.706Z,3.30
2023-02-05T09:01:41.193Z,3.33
2023-02-05T09:04:23.447Z,3.28
2023-02-05T09:06:52.932Z,2.70
2023-02-05T09:09:19.917Z,3.08
2023-02-05T09:11:50.535Z,3.10
2023-02-05T09:14:19.917Z,2.90
2023-02-05T09:16:49.126Z,2.67
2023-02-05T09:19:18.368Z,2.88
2023-02-05T09:21:45.348Z,2.50
2023-02-05T09:24:12.172Z,3.13
2023-02-05T09:26:39.107Z,3.03
2023-02-05T09:29:05.934Z,3.75
2023-02-05T09:31:35.070Z,3.85
2023-02-05T09:34:03.553Z,3.92
2023-02-05T09:36:30.478Z,4.00
2023-02-05T09:39:13.366Z,4.30
2023-02-05T09:42:02.363Z,4.85
2023-02-05T09:45:13.227Z,4.20
2023-02-05T09:48:01.338Z,3.95
2023-02-05T09:50:30.099Z,3.72
2023-02-05T09:53:06.023Z,4.47
2023-02-05T09:55:47.584Z,4.40
2023-02-05T09:58:20.958Z,4.00
2023-02-05T10:01:02.306Z,3.63
2023-02-05T10:03:42.472Z,3.55
2023-02-05T10:07:25.409Z,4.13
2023-02-05T10:10:10.364Z,4.18
2023-02-05T10:12:37.205Z,3.40
2023-02-05T10:15:50.803Z,4.22
2023-02-05T10:18:52.205Z,3.72
2023-02-05T10:21:31.934Z,2.85
2023-02-05T10:24:24.074Z,3.75
2023-02-05T10:26:52.409Z,33.15
2023-02-05T10:29:52.413Z,9.85
2023-02-05T10:32:25.693Z,4.53
2023-02-05T10:35:05.672Z,3.65
2023-02-05T10:37:58.527Z,2.75
2023-02-05T10:40:34.961Z,2.90
2023-02-05T10:43:22.813Z,3.08
2023-02-05T10:45:53.627Z,2.55
2023-02-05T10:48:51.092Z,3.88
2023-02-05T10:51:27.941Z,2.70
2023-02-05T10:53:58.180Z,3.30
2023-02-05T10:56:27.634Z,3.28
2023-02-05T10:59:01.404Z,3.72
2023-02-05T11:01:38.841Z,3.65
2023-02-05T11:04:18.069Z,3.90
2023-02-05T11:06:49.082Z,3.08
2023-02-05T11:09:40.285Z,3.33
2023-02-05T11:12:26.619Z,3.53
2023-02-05T11:15:01.011Z,3.92
2023-02-05T11:17:40.019Z,3.90
2023-02-05T11:20:17.745Z,3.83
2023-02-05T11:22:54.241Z,4.50
2023-02-05T11:25:30.428Z,4.40
2023-02-05T11:28:06.662Z,4.28
2023-02-05T11:30:55.660Z,5.80
2023-02-05T11:33:22.793Z,5.65
2023-02-05T11:36:16.391Z,4.88
2023-02-05T11:38:47.135Z,4.82
2023-02-05T11:41:48.025Z,5.97
2023-02-05T11:44:30.351Z,4.18
2023-02-05T11:47:00.548Z,4.30
2023-02-05T11:49:41.287Z,4.25
2023-02-05T11:52:15.473Z,3.63
2023-02-05T11:54:47.549Z,4.72
2023-02-05T11:57:17.378Z,5.88
2023-02-05T11:59:56.326Z,4.80
2023-02-05T12:02:31.136Z,4.20
2023-02-05T12:05:13.092Z,6.00
2023-02-05T12:08:16.579Z,6.53
2023-02-05T12:11:11.848Z,5.00
2023-02-05T12:13:52.126Z,4.55
2023-02-05T12:16:50.330Z,4.53
2023-02-05T12:19:55.956Z,4.25
2023-02-05T12:22:47.280Z,4.00
2023-02-05T12:25:35.816Z,4.05
2023-02-05T12:28:19.076Z,4.45
2023-02-05T12:31:22.421Z,5.07
2023-02-05T12:34:16.920Z,5.05
2023-02-05T12:37:11.495Z,4.75
2023-02-05T12:39:54.891Z,5.28
2023-02-05T12:42:37.438Z,5.35
2023-02-05T12:45:04.321Z,5.18
2023-02-05T12:48:12.416Z,5.18
2023-02-05T12:51:18.285Z,4.50
2023-02-05T12:54:03.354Z,5.00
2023-02-05T12:57:01.333Z,4.15
2023-02-05T12:59:52.032Z,3.75
2023-02-05T13:02:56.382Z,3.53
2023-02-05T13:05:32.667Z,4.68
2023-02-05T13:08:21.088Z,3.72
2023-02-05T13:10:56.766Z,3.97
2023-02-05T13:13:56.392Z,4.15
2023-02-05T13:16:41.301Z,4.43
2023-02-05T13:19:40.891Z,4.45
2023-02-05T13:22:38.330Z,3.70
2023-02-05T13:25:44.415Z,3.70
2023-02-05T13:28:55.049Z,3.70
2023-02-05T13:31:43.365Z,3.63
2023-02-05T13:34:15.412Z,3.58
2023-02-05T13:37:27.685Z,3.70
2023-02-05T13:40:24.952Z,3.53
2023-02-05T13:43:06.789Z,4.35
2023-02-05T13:46:10.525Z,3.72
2023-02-05T13:48:49.691Z,3.97
2023-02-05T13:51:34.569Z,3.92
2023-02-05T13:54:38.709Z,4.22
2023-02-05T13:57:32.884Z,4.90
2023-02-05T14:00:03.774Z,4.50
2023-02-05T14:02:45.923Z,4.60
2023-02-05T14:05:14.872Z,4.13
2023-02-05T14:07:50.970Z,4.43
2023-02-05T14:10:39.946Z,4.35
2023-02-05T14:13:32.522Z,4.70
2023-02-05T14:16:28.056Z,4.53
2023-02-05T14:19:00.905Z,4.43
2023-02-05T14:21:30.741Z,4.05
2023-02-05T14:24:47.960Z,4.28
2023-02-05T14:27:42.139Z,4.15
2023-02-05T14:30:30.885Z,4.15
2023-02-05T14:33:08.105Z,4.55
2023-02-05T14:35:41.032Z,3.58
2023-02-05T14:38:34.470Z,4.25
2023-02-05T14:41:14.143Z,3.92
2023-02-05T14:43:46.483Z,3.40
2023-02-05T14:46:46.270Z,4.00
2023-02-05T14:49:47.398Z,3.42
2023-02-05T14:52:32.647Z,4.20
2023-02-05T14:55:05.870Z,4.30
2023-02-05T14:57:51.111Z,4.75
2023-02-05T15:00:39.012Z,5.13
2023-02-05T15:03:05.977Z,5.18
2023-02-05T15:05:45.077Z,4.93
2023-02-05T15:08:36.207Z,4.00
2023-02-05T15:11:26.127Z,4.75
2023-02-05T15:14:21.392Z,5.10
2023-02-05T15:17:06.606Z,4.65
2023-02-05T15:19:55.913Z,4.55
2023-02-05T15:22:37.541Z,4.95
2023-02-05T15:25:30.743Z,5.88
2023-02-05T15:28:04.949Z,6.00
2023-02-05T15:31:17.202Z,6.20
2023-02-05T15:34:32.203Z,4.75
2023-02-05T15:37:08.074Z,4.20
2023-02-05T15:39:56.653Z,3.67
2023-02-05T15:42:36.549Z,6.00
2023-02-05T15:45:26.506Z,11.45
2023-02-05T15:48:13.455Z,9.98
2023-02-05T15:51:09.983Z,10.93
2023-02-05T15:53:43.807Z,10.27
2023-02-05T15:56:22.583Z,10.88
2023-02-05T15:59:18.472Z,11.82
2023-02-05T16:01:59.588Z,12.07
2023-02-05T16:04:41.219Z,13.15
2023-02-05T16:07:26.658Z,10.50
2023-02-05T16:10:00.898Z,10.63
2023-02-05T16:12:27.942Z,10.60
2023-02-05T16:15:07.057Z,10.13
2023-02-05T16:17:39.148Z,10.52
2023-02-05T16:20:29.136Z,9.35
2023-02-05T16:23:24.659Z,8.25
2023-02-05T16:26:11.094Z,7.95
2023-02-05T16:28:45.741Z,8.27
2023-02-05T16:31:21.200Z,8.45
2023-02-05T16:34:18.406Z,7.32
2023-02-05T16:36:50.199Z,6.90
2023-02-05T16:39:27.794Z,6.45
2023-02-05T16:42:29.021Z,6.70
2023-02-05T16:45:20.432Z,6.75
2023-02-05T16:48:29.393Z,6.32
2023-02-05T16:51:01.757Z,6.28
2023-02-05T16:53:32.145Z,7.00
2023-02-05T16:56:17.982Z,7.53
2023-02-05T16:58:49.941Z,7.07
2023-02-05T17:01:28.866Z,7.35
2023-02-05T17:03:58.846Z,8.20
2023-02-05T17:06:38.067Z,8.52
2023-02-05T17:09:05.755Z,7.72
2023-02-05T17:11:38.123Z,6.88
2023-02-05T17:14:13.876Z,6.18
2023-02-05T17:16:42.361Z,5.68
2023-02-05T17:19:24.882Z,5.80
2023-02-05T17:22:15.996Z,5.88
2023-02-05T17:24:48.017Z,5.88
2023-02-05T17:27:33.933Z,5.63
2023-02-05T17:30:05.986Z,6.05
2023-02-05T17:32:33.274Z,5.65
2023-02-05T17:35:00.517Z,4.38
2023-02-05T17:37:30.196Z,4.13
2023-02-05T17:39:57.811Z,4.88
2023-02-05T17:42:26.563Z,3.85
2023-02-05T17:44:53.887Z,4.22
2023-02-05T17:47:23.950Z,2.55
2023-02-05T17:49:50.863Z,1.80
2023-02-05T17:52:20.577Z,1.60
2023-02-05T17:54:49.952Z,1.67
2023-02-05T17:57:22.400Z,1.58
2023-02-05T17:59:56.735Z,1.85
2023-02-05T18:02:23.744Z,2.00
2023-02-05T18:04:50.719Z,2.42
2023-02-05T18:07:32.131Z,1.98
2023-02-05T18:09:59.615Z,1.80
2023-02-05T18:12:27.308Z,2.20
2023-02-05T18:14:55.067Z,1.77
2023-02-05T18:17:24.327Z,1.77
2023-02-05T18:19:51.256Z,1.77
2023-02-05T18:22:21.514Z,1.60
2023-02-05T18:24:48.431Z,1.38
2023-02-05T18:27:18.927Z,1.90
2023-02-05T18:29:45.859Z,1.40
2023-02-05T18:32:12.835Z,1.25
2023-02-05T18:34:40.096Z,1.55
2023-02-05T18:37:07.162Z,1.30
2023-02-05T18:39:34.031Z,1.33
2023-02-05T18:42:01.388Z,1.52
2023-02-05T18:44:30.496Z,1.75
2023-02-05T18:47:00.223Z,3.50
2023-02-05T18:49:27.170Z,2.05
2023-02-05T18:51:56.666Z,1.77
2023-02-05T18:54:23.966Z,2.10
2023-02-05T18:56:54.365Z,1.95
2023-02-05T18:59:25.648Z,1.83
2023-02-05T19:01:53.005Z,1.48
2023-02-05T19:04:25.833Z,1.52
2023-02-05T19:06:53.540Z,1.60
2023-02-05T19:09:25.001Z,1.70
2023-02-05T19:11:58.030Z,1.27
2023-02-05T19:14:27.546Z,1.42
2023-02-05T19:16:56.979Z,1.70
2023-02-05T19:19:31.096Z,1.70
2023-02-05T19:22:02.210Z,2.33
2023-02-05T19:24:29.465Z,4.00
2023-02-05T19:26:59.235Z,2.53
2023-02-05T19:29:27.540Z,2.40
2023-02-05T19:31:54.746Z,2.88
2023-02-05T19:34:22.261Z,4.45
2023-02-05T19:36:53.038Z,2.90
2023-02-05T19:39:22.172Z,2.63
2023-02-05T19:41:49.095Z,2.63
2023-02-05T19:44:21.411Z,2.47
2023-02-05T19:46:51.086Z,2.50
2023-02-05T19:49:21.256Z,3.38
2023-02-05T19:51:55.101Z,4.32
2023-02-05T19:54:22.805Z,5.13
2023-02-05T19:56:52.686Z,15.27
2023-02-05T19:59:24.672Z,7.88
2023-02-05T20:01:58.556Z,4.90
2023-02-05T20:04:28.478Z,4.35
2023-02-05T20:06:59.920Z,3.72
2023-02-05T20:09:27.834Z,3.08
2023-02-05T20:11:57.509Z,2.83
2023-02-05T20:14:24.524Z,3.17
2023-02-05T20:16:54.322Z,2.70
2023-02-05T20:19:23.699Z,3.10
2023-02-05T20:21:50.900Z,2.92
2023-02-05T20:24:17.887Z,3.67
2023-02-05T20:26:48.380Z,3.88
2023-02-05T20:29:35.213Z,4.10
2023-02-05T20:32:05.448Z,5.18
2023-02-05T20:34:35.965Z,5.80
2023-02-05T20:37:07.144Z,6.07
2023-02-05T20:39:39.677Z,3.58
2023-02-05T20:42:06.716Z,2.47
2023-02-05T20:44:36.227Z,1.50
2023-02-05T20:47:07.228Z,1.27
2023-02-05T20:49:35.675Z,1.00
2023-02-05T20:52:05.371Z,0.80
2023-02-05T20:54:35.448Z,0.93
2023-02-05T20:57:02.779Z,0.68
2023-02-05T20:59:33.137Z,1.10
2023-02-05T21:02:00.534Z,0.90
2023-02-05T21:04:27.477Z,1.17
2023-02-05T21:06:56.529Z,1.10
2023-02-05T21:09:23.425Z,1.10
2023-02-05T21:11:55.199Z,1.10
2023-02-05T21:14:22.899Z,1.20
2023-02-05T21:16:49.940Z,0.88
2023-02-05T21:19:18.512Z,0.95
2023-02-05T21:21:45.572Z,0.80
2023-02-05T21:24:17.408Z,1.88
2023-02-05T21:26:46.996Z,2.92
2023-02-05T21:29:18.479Z,1.67
2023-02-05T21:31:49.273Z,1.17
2023-02-05T21:34:23.494Z,1.30
2023-02-05T21:36:56.360Z,1.23
2023-02-05T21:39:23.929Z,1.27
2023-02-05T21:41:53.959Z,1.15
2023-02-05T21:44:23.014Z,1.10
2023-02-05T21:46:50.019Z,1.23
2023-02-05T21:49:18.986Z,1.25
2023-02-05T21:51:47.961Z,1.50
2023-02-05T21:54:15.035Z,1.20
2023-02-05T21:56:43.551Z,1.65
2023-02-05T21:59:15.564Z,1.75
2023-02-05T22:01:43.254Z,1.98
2023-02-05T22:04:15.968Z,1.88
2023-02-05T22:06:46.030Z,2.30
2023-02-05T22:09:16.823Z,2.20
2023-02-05T22:11:44.728Z,2.10
2023-02-05T22:14:14.123Z,1.90
2023-02-05T22:16:41.335Z,1.70
2023-02-05T22:19:08.947Z,1.67
2023-02-05T22:21:47.498Z,1.65
2023-02-05T22:24:17.222Z,1.75
2023-02-05T22:26:45.530Z,2.58
2023-02-05T22:29:16.110Z,2.58
2023-02-05T22:31:44.506Z,2.70
2023-02-05T22:34:11.847Z,2.95
2023-02-05T22:36:38.803Z,2.42
2023-02-05T22:39:06.459Z,3.15
2023-02-05T22:41:39.789Z,3.65
2023-02-05T22:44:08.826Z,4.18
2023-02-05T22:46:43.469Z,2.83
2023-02-05T22:49:16.917Z,2.45
2023-02-05T22:51:45.207Z,3.13
2023-02-05T22:54:13.925Z,3.30
2023-02-05T22:56:40.926Z,3.25
2023-02-05T22:59:10.334Z,2.75
2023-02-05T23:01:41.083Z,2.92
2023-02-05T23:04:09.338Z,2.28
2023-02-05T23:06:40.130Z,2.85
2023-02-05T23:09:16.281Z,2.78
2023-02-05T23:11:43.892Z,2.58
2023-02-05T23:14:13.403Z,2.35
2023-02-05T23:16:45.967Z,1.80
2023-02-05T23:19:20.043Z,1.73
2023-02-05T23:21:48.204Z,1.92
2023-02-05T23:24:16.070Z,2.20
2023-02-05T23:26:46.980Z,1.85
2023-02-05T23:29:16.132Z,1.80
2023-02-05T23:31:43.746Z,2.00
2023-02-05T23:34:13.786Z,2.08
2023-02-05T23:36:41.101Z,1.80
2023-02-05T23:39:10.729Z,2.33
2023-02-05T23:41:37.754Z,2.30
2023-02-05T23:44:18.168Z,2.83
2023-02-05T23:46:47.509Z,2.50
2023-02-05T23:49:20.939Z,2.53
2023-02-05T23:51:48.602Z,2.70
2023-02-05T23:54:15.738Z,2.47
2023-02-05T23:56:42.836Z,2.35
2023-02-05T23:59:12.271Z,2.45
